SUR4606 SABE-SBPA
Flight info
| Callsign | SUR4606 |
|---|---|
| Flight time | 1h 12m |
| Altitude | 39000 |
| Route | CRR DCT PTS DCT GAI |
| Aircraft | B737/M-SDE2E3FGHIRWXY/LB1 |
Departure
| Time | 2026-05-03 20:48 |
|---|---|
| Airport | Aeroparque Jorge Newbery (SABE) |
Arrival
| Time | 2026-05-03 22:01 |
|---|---|
| Airport | Porto Alegre-Salgado Filho International Airport (SBPA) |
| Time | Latitude | Longitude | Altitude | Speed | Heading |
|---|---|---|---|---|---|
| 2026-05-03 20:15 | -34.55947 | -58.41176 | 30 ft | 0 kts | 279° |
| 2026-05-03 20:33 | -34.55947 | -58.41174 | 30 ft | 1 kts | 281° |
| 2026-05-03 20:33 | -34.55947 | -58.41157 | 30 ft | 2 kts | 269° |
| 2026-05-03 20:33 | -34.55948 | -58.41139 | 29 ft | 2 kts | 272° |
| 2026-05-03 20:33 | -34.55949 | -58.41121 | 29 ft | 2 kts | 271° |
| 2026-05-03 20:34 | -34.55949 | -58.41102 | 29 ft | 0 kts | 288° |
| 2026-05-03 20:34 | -34.55951 | -58.41096 | 29 ft | 0 kts | 307° |
| 2026-05-03 20:38 | -34.55949 | -58.41100 | 29 ft | 2 kts | 307° |
| 2026-05-03 20:38 | -34.55936 | -58.41122 | 29 ft | 5 kts | 306° |
| 2026-05-03 20:38 | -34.55911 | -58.41162 | 29 ft | 5 kts | 308° |
| 2026-05-03 20:38 | -34.55877 | -58.41212 | 29 ft | 9 kts | 309° |
| 2026-05-03 20:39 | -34.55870 | -58.41278 | 28 ft | 8 kts | 228° |
| 2026-05-03 20:39 | -34.55915 | -58.41295 | 29 ft | 6 kts | 159° |
| 2026-05-03 20:39 | -34.55947 | -58.41255 | 30 ft | 5 kts | 128° |
| 2026-05-03 20:39 | -34.55970 | -58.41222 | 30 ft | 4 kts | 128° |
| 2026-05-03 20:40 | -34.56000 | -58.41170 | 31 ft | 10 kts | 126° |
| 2026-05-03 20:40 | -34.56045 | -58.41096 | 30 ft | 10 kts | 126° |
| 2026-05-03 20:40 | -34.56086 | -58.41030 | 30 ft | 8 kts | 126° |
| 2026-05-03 20:40 | -34.56123 | -58.40969 | 29 ft | 8 kts | 126° |
| 2026-05-03 20:41 | -34.56159 | -58.40907 | 29 ft | 9 kts | 123° |
| 2026-05-03 20:41 | -34.56171 | -58.40831 | 28 ft | 9 kts | 104° |
| 2026-05-03 20:41 | -34.56206 | -58.40759 | 27 ft | 9 kts | 124° |
| 2026-05-03 20:41 | -34.56239 | -58.40700 | 27 ft | 6 kts | 123° |
| 2026-05-03 20:42 | -34.56265 | -58.40652 | 26 ft | 6 kts | 123° |
| 2026-05-03 20:42 | -34.56290 | -58.40608 | 26 ft | 5 kts | 125° |
| 2026-05-03 20:42 | -34.56314 | -58.40570 | 25 ft | 5 kts | 132° |
| 2026-05-03 20:42 | -34.56341 | -58.40539 | 25 ft | 4 kts | 138° |
| 2026-05-03 20:43 | -34.56344 | -58.40536 | 25 ft | 0 kts | 137° |
| 2026-05-03 20:43 | -34.56350 | -58.40530 | 25 ft | 0 kts | 137° |
| 2026-05-03 20:44 | -34.56353 | -58.40527 | 25 ft | 2 kts | 137° |
| 2026-05-03 20:44 | -34.56368 | -58.40509 | 25 ft | 3 kts | 137° |
| 2026-05-03 20:44 | -34.56387 | -58.40489 | 25 ft | 3 kts | 138° |
| 2026-05-03 20:45 | -34.56403 | -58.40471 | 26 ft | 2 kts | 139° |
| 2026-05-03 20:45 | -34.56409 | -58.40465 | 26 ft | 0 kts | 138° |
| 2026-05-03 20:45 | -34.56419 | -58.40454 | 26 ft | 5 kts | 138° |
| 2026-05-03 20:45 | -34.56456 | -58.40415 | 26 ft | 8 kts | 137° |
| 2026-05-03 20:46 | -34.56501 | -58.40374 | 25 ft | 7 kts | 166° |
| 2026-05-03 20:46 | -34.56545 | -58.40389 | 26 ft | 6 kts | 218° |
| 2026-05-03 20:46 | -34.56552 | -58.40440 | 27 ft | 9 kts | 291° |
| 2026-05-03 20:46 | -34.56524 | -58.40501 | 28 ft | 7 kts | 303° |
| 2026-05-03 20:47 | -34.56520 | -58.40508 | 28 ft | 0 kts | 303° |
| 2026-05-03 20:47 | -34.56520 | -58.40509 | 28 ft | 0 kts | 303° |
| 2026-05-03 20:48 | -34.56511 | -58.40525 | 28 ft | 13 kts | 304° |
| 2026-05-03 20:48 | -34.56251 | -58.40993 | 31 ft | 117 kts | 304° |
| 2026-05-03 20:48 | -34.55651 | -58.42047 | 439 ft | 170 kts | 307° |
| 2026-05-03 20:48 | -34.54985 | -58.43263 | 1311 ft | 181 kts | 309° |
| 2026-05-03 20:49 | -34.54109 | -58.44266 | 2294 ft | 174 kts | 333° |
| 2026-05-03 20:49 | -34.52919 | -58.44558 | 3005 ft | 184 kts | 3° |
| 2026-05-03 20:49 | -34.51629 | -58.44114 | 3627 ft | 205 kts | 21° |
| 2026-05-03 20:49 | -34.50422 | -58.43005 | 4208 ft | 233 kts | 47° |
| 2026-05-03 20:50 | -34.49771 | -58.41142 | 4812 ft | 255 kts | 76° |
| 2026-05-03 20:50 | -34.49864 | -58.38942 | 5006 ft | 276 kts | 102° |
| 2026-05-03 20:50 | -34.50515 | -58.36711 | 5007 ft | 284 kts | 110° |
| 2026-05-03 20:50 | -34.51200 | -58.34422 | 5133 ft | 298 kts | 104° |
| 2026-05-03 20:51 | -34.51753 | -58.32057 | 6294 ft | 295 kts | 103° |
| 2026-05-03 20:51 | -34.52294 | -58.29663 | 7341 ft | 297 kts | 104° |
| 2026-05-03 20:51 | -34.52864 | -58.27243 | 8232 ft | 304 kts | 105° |
| 2026-05-03 20:51 | -34.53463 | -58.24802 | 9165 ft | 309 kts | 106° |
| 2026-05-03 20:52 | -34.54090 | -58.22300 | 10097 ft | 313 kts | 107° |
| 2026-05-03 20:52 | -34.54736 | -58.19740 | 10805 ft | 326 kts | 108° |
| 2026-05-03 20:52 | -34.55414 | -58.17056 | 11394 ft | 341 kts | 108° |
| 2026-05-03 20:52 | -34.56117 | -58.14271 | 11894 ft | 357 kts | 108° |
| 2026-05-03 20:53 | -34.56860 | -58.11317 | 12372 ft | 374 kts | 108° |
| 2026-05-03 20:53 | -34.57636 | -58.08229 | 12967 ft | 387 kts | 108° |
| 2026-05-03 20:53 | -34.58419 | -58.05100 | 13716 ft | 393 kts | 109° |
| 2026-05-03 20:53 | -34.59215 | -58.01915 | 14480 ft | 398 kts | 109° |
| 2026-05-03 20:54 | -34.60014 | -57.98716 | 15208 ft | 403 kts | 109° |
| 2026-05-03 20:54 | -34.61642 | -57.92175 | 16699 ft | 411 kts | 109° |
| 2026-05-03 20:54 | -34.62478 | -57.88816 | 17439 ft | 416 kts | 109° |
| 2026-05-03 20:55 | -34.63313 | -57.85453 | 18086 ft | 421 kts | 110° |
| 2026-05-03 20:55 | -34.64157 | -57.82053 | 18799 ft | 425 kts | 109° |
| 2026-05-03 20:55 | -34.65008 | -57.78614 | 19468 ft | 429 kts | 110° |
| 2026-05-03 20:55 | -34.65866 | -57.75150 | 20190 ft | 432 kts | 110° |
| 2026-05-03 20:56 | -34.66729 | -57.71659 | 20877 ft | 437 kts | 110° |
| 2026-05-03 20:56 | -34.67606 | -57.68108 | 21475 ft | 441 kts | 110° |
| 2026-05-03 20:56 | -34.68490 | -57.64523 | 22110 ft | 445 kts | 110° |
| 2026-05-03 20:56 | -34.69386 | -57.60885 | 22713 ft | 449 kts | 110° |
| 2026-05-03 20:57 | -34.70276 | -57.57263 | 23315 ft | 452 kts | 110° |
| 2026-05-03 20:57 | -34.71117 | -57.53599 | 23876 ft | 457 kts | 107° |
| 2026-05-03 20:57 | -34.71756 | -57.49779 | 24418 ft | 463 kts | 103° |
| 2026-05-03 20:57 | -34.72218 | -57.45887 | 25003 ft | 467 kts | 100° |
| 2026-05-03 20:58 | -34.72582 | -57.41958 | 25520 ft | 472 kts | 99° |
| 2026-05-03 20:58 | -34.72899 | -57.38047 | 26063 ft | 475 kts | 98° |
| 2026-05-03 20:58 | -34.73208 | -57.33998 | 26554 ft | 479 kts | 98° |
| 2026-05-03 20:58 | -34.73512 | -57.29985 | 27022 ft | 483 kts | 98° |
| 2026-05-03 20:59 | -34.73822 | -57.25922 | 27518 ft | 486 kts | 98° |
| 2026-05-03 20:59 | -34.74136 | -57.21867 | 27957 ft | 489 kts | 98° |
| 2026-05-03 20:59 | -34.74461 | -57.17733 | 28414 ft | 493 kts | 98° |
| 2026-05-03 20:59 | -34.74791 | -57.13565 | 28886 ft | 495 kts | 98° |
| 2026-05-03 21:00 | -34.75121 | -57.09418 | 29301 ft | 499 kts | 99° |
| 2026-05-03 21:00 | -34.75233 | -57.08019 | 29457 ft | 500 kts | 99° |
| 2026-05-03 21:00 | -34.75796 | -57.00977 | 30131 ft | 506 kts | 99° |
| 2026-05-03 21:00 | -34.76136 | -56.96713 | 30726 ft | 505 kts | 99° |
| 2026-05-03 21:01 | -34.76471 | -56.92486 | 31401 ft | 502 kts | 99° |
| 2026-05-03 21:01 | -34.76802 | -56.88292 | 31987 ft | 501 kts | 99° |
| 2026-05-03 21:01 | -34.77132 | -56.84084 | 32509 ft | 501 kts | 99° |
| 2026-05-03 21:01 | -34.77459 | -56.79917 | 33044 ft | 500 kts | 100° |
| 2026-05-03 21:02 | -34.77786 | -56.75729 | 33613 ft | 498 kts | 100° |
| 2026-05-03 21:02 | -34.78113 | -56.71521 | 34144 ft | 497 kts | 100° |
| 2026-05-03 21:02 | -34.78437 | -56.67323 | 34672 ft | 496 kts | 100° |
| 2026-05-03 21:02 | -34.78758 | -56.63158 | 35231 ft | 495 kts | 100° |
| 2026-05-03 21:03 | -34.79084 | -56.58924 | 35694 ft | 495 kts | 100° |
| 2026-05-03 21:03 | -34.79401 | -56.54786 | 36203 ft | 494 kts | 100° |
| 2026-05-03 21:03 | -34.79719 | -56.50615 | 36677 ft | 493 kts | 100° |
| 2026-05-03 21:03 | -34.80039 | -56.46409 | 37036 ft | 495 kts | 100° |
| 2026-05-03 21:04 | -34.80356 | -56.42229 | 37492 ft | 494 kts | 100° |
| 2026-05-03 21:04 | -34.80667 | -56.38088 | 37918 ft | 494 kts | 100° |
| 2026-05-03 21:04 | -34.80978 | -56.33923 | 38266 ft | 495 kts | 99° |
| 2026-05-03 21:04 | -34.81292 | -56.29709 | 38587 ft | 495 kts | 99° |
| 2026-05-03 21:05 | -34.81599 | -56.25563 | 38877 ft | 496 kts | 99° |
| 2026-05-03 21:05 | -34.81910 | -56.21350 | 39125 ft | 497 kts | 99° |
| 2026-05-03 21:05 | -34.82503 | -56.12929 | 39122 ft | 498 kts | 97° |
| 2026-05-03 21:06 | -34.81886 | -56.04576 | 39123 ft | 505 kts | 74° |
| 2026-05-03 21:06 | -34.80534 | -56.00632 | 39126 ft | 507 kts | 61° |
| 2026-05-03 21:06 | -34.78620 | -55.97058 | 39129 ft | 507 kts | 52° |
| 2026-05-03 21:07 | -34.73985 | -55.90596 | 39109 ft | 503 kts | 44° |
| 2026-05-03 21:07 | -34.69913 | -55.85551 | 39109 ft | 503 kts | 43° |
| 2026-05-03 21:08 | -34.64135 | -55.78517 | 39096 ft | 503 kts | 43° |
| 2026-05-03 21:08 | -34.59186 | -55.72450 | 39103 ft | 504 kts | 43° |
| 2026-05-03 21:09 | -34.54246 | -55.66357 | 39101 ft | 504 kts | 43° |
| 2026-05-03 21:09 | -34.49328 | -55.60272 | 39110 ft | 503 kts | 43° |
| 2026-05-03 21:10 | -34.44408 | -55.54185 | 39115 ft | 504 kts | 44° |
| 2026-05-03 21:10 | -34.39494 | -55.48117 | 39103 ft | 505 kts | 44° |
| 2026-05-03 21:11 | -34.34548 | -55.42021 | 39109 ft | 505 kts | 43° |
| 2026-05-03 21:11 | -34.29607 | -55.35941 | 39106 ft | 504 kts | 43° |
| 2026-05-03 21:12 | -34.24667 | -55.29870 | 39102 ft | 504 kts | 43° |
| 2026-05-03 21:12 | -34.19751 | -55.23838 | 39107 ft | 505 kts | 43° |
| 2026-05-03 21:13 | -34.14779 | -55.17753 | 39109 ft | 506 kts | 43° |
| 2026-05-03 21:13 | -34.09840 | -55.11715 | 39108 ft | 504 kts | 43° |
| 2026-05-03 21:14 | -34.04908 | -55.05701 | 39109 ft | 506 kts | 42° |
| 2026-05-03 21:14 | -33.99951 | -54.99664 | 39108 ft | 506 kts | 42° |
| 2026-05-03 21:15 | -33.94992 | -54.93641 | 39111 ft | 505 kts | 42° |
| 2026-05-03 21:15 | -33.90016 | -54.87604 | 39119 ft | 504 kts | 42° |
| 2026-05-03 21:16 | -33.85099 | -54.81648 | 39109 ft | 504 kts | 42° |
| 2026-05-03 21:16 | -33.80134 | -54.75646 | 39117 ft | 503 kts | 42° |
| 2026-05-03 21:17 | -33.76012 | -54.70670 | 39128 ft | 503 kts | 42° |
| 2026-05-03 21:17 | -33.70238 | -54.63712 | 39112 ft | 501 kts | 41° |
| 2026-05-03 21:18 | -33.65319 | -54.57797 | 39130 ft | 502 kts | 42° |
| 2026-05-03 21:18 | -33.60345 | -54.51826 | 39134 ft | 503 kts | 42° |
| 2026-05-03 21:19 | -33.55407 | -54.45906 | 39129 ft | 501 kts | 41° |
| 2026-05-03 21:19 | -33.50474 | -54.40003 | 39120 ft | 501 kts | 41° |
| 2026-05-03 21:20 | -33.45501 | -54.34065 | 39133 ft | 503 kts | 41° |
| 2026-05-03 21:20 | -33.40552 | -54.28163 | 39142 ft | 500 kts | 41° |
| 2026-05-03 21:21 | -33.35632 | -54.22305 | 39143 ft | 500 kts | 40° |
| 2026-05-03 21:21 | -33.30688 | -54.16430 | 39130 ft | 500 kts | 41° |
| 2026-05-03 21:22 | -33.25739 | -54.10557 | 39129 ft | 499 kts | 40° |
| 2026-05-03 21:22 | -33.20803 | -54.04713 | 39128 ft | 500 kts | 41° |
| 2026-05-03 21:23 | -33.15860 | -53.98870 | 39133 ft | 500 kts | 41° |
| 2026-05-03 21:23 | -33.10945 | -53.93067 | 39126 ft | 499 kts | 40° |
| 2026-05-03 21:24 | -33.06002 | -53.87242 | 39131 ft | 500 kts | 41° |
| 2026-05-03 21:24 | -33.01057 | -53.81423 | 39136 ft | 500 kts | 40° |
| 2026-05-03 21:25 | -32.96061 | -53.75555 | 39120 ft | 501 kts | 40° |
| 2026-05-03 21:25 | -32.91091 | -53.69729 | 39172 ft | 501 kts | 40° |
| 2026-05-03 21:26 | -32.86116 | -53.63905 | 39181 ft | 501 kts | 40° |
| 2026-05-03 21:26 | -32.81146 | -53.58098 | 39139 ft | 500 kts | 40° |
| 2026-05-03 21:27 | -32.76164 | -53.52288 | 39149 ft | 500 kts | 40° |
| 2026-05-03 21:27 | -32.71183 | -53.46489 | 39145 ft | 501 kts | 40° |
| 2026-05-03 21:28 | -32.66161 | -53.40649 | 39142 ft | 500 kts | 40° |
| 2026-05-03 21:28 | -32.61179 | -53.34865 | 39147 ft | 502 kts | 40° |
| 2026-05-03 21:29 | -32.56186 | -53.29079 | 39141 ft | 500 kts | 40° |
| 2026-05-03 21:29 | -32.52033 | -53.24272 | 39150 ft | 500 kts | 40° |
| 2026-05-03 21:30 | -32.47053 | -53.18518 | 39139 ft | 500 kts | 39° |
| 2026-05-03 21:30 | -32.41193 | -53.11760 | 39145 ft | 502 kts | 40° |
| 2026-05-03 21:31 | -32.36186 | -53.05995 | 39149 ft | 500 kts | 40° |
| 2026-05-03 21:31 | -32.31194 | -53.00257 | 39149 ft | 500 kts | 39° |
| 2026-05-03 21:32 | -32.26182 | -52.94503 | 39152 ft | 499 kts | 39° |
| 2026-05-03 21:32 | -32.21199 | -52.88795 | 39149 ft | 500 kts | 39° |
| 2026-05-03 21:33 | -32.16177 | -52.83052 | 39146 ft | 500 kts | 39° |
| 2026-05-03 21:33 | -32.11183 | -52.77350 | 39147 ft | 500 kts | 39° |
| 2026-05-03 21:34 | -32.06181 | -52.71646 | 39149 ft | 500 kts | 39° |
| 2026-05-03 21:34 | -32.01141 | -52.65908 | 39144 ft | 499 kts | 39° |
| 2026-05-03 21:35 | -31.96149 | -52.60234 | 39162 ft | 499 kts | 39° |
| 2026-05-03 21:35 | -31.91156 | -52.54571 | 39159 ft | 499 kts | 39° |
| 2026-05-03 21:36 | -31.86126 | -52.48877 | 39157 ft | 501 kts | 39° |
| 2026-05-03 21:36 | -31.81121 | -52.43215 | 39164 ft | 500 kts | 39° |
| 2026-05-03 21:37 | -31.76076 | -52.37523 | 39167 ft | 500 kts | 39° |
| 2026-05-03 21:37 | -31.70803 | -52.32256 | 39169 ft | 494 kts | 30° |
| 2026-05-03 21:38 | -31.65050 | -52.27950 | 39168 ft | 487 kts | 24° |
| 2026-05-03 21:38 | -31.59127 | -52.24034 | 39173 ft | 486 kts | 22° |
| 2026-05-03 21:39 | -31.53195 | -52.20178 | 39170 ft | 485 kts | 22° |
| 2026-05-03 21:39 | -31.47293 | -52.16312 | 39174 ft | 487 kts | 22° |
| 2026-05-03 21:40 | -31.41350 | -52.12388 | 39169 ft | 488 kts | 23° |
| 2026-05-03 21:40 | -31.35423 | -52.08457 | 39168 ft | 488 kts | 23° |
| 2026-05-03 21:41 | -31.29536 | -52.04550 | 38721 ft | 485 kts | 23° |
| 2026-05-03 21:41 | -31.26580 | -52.02591 | 37921 ft | 487 kts | 23° |
| 2026-05-03 21:41 | -31.23674 | -52.00665 | 37459 ft | 481 kts | 23° |
| 2026-05-03 21:42 | -31.20780 | -51.98745 | 36917 ft | 478 kts | 24° |
| 2026-05-03 21:42 | -31.17865 | -51.96814 | 36269 ft | 476 kts | 24° |
| 2026-05-03 21:42 | -31.14984 | -51.94910 | 35561 ft | 476 kts | 24° |
| 2026-05-03 21:42 | -31.12128 | -51.93025 | 34817 ft | 476 kts | 24° |
| 2026-05-03 21:43 | -31.09251 | -51.91128 | 34019 ft | 478 kts | 24° |
| 2026-05-03 21:43 | -31.06348 | -51.89217 | 33210 ft | 479 kts | 24° |
| 2026-05-03 21:43 | -31.03435 | -51.87300 | 32365 ft | 481 kts | 24° |
| 2026-05-03 21:43 | -31.00529 | -51.85389 | 31493 ft | 483 kts | 24° |
| 2026-05-03 21:44 | -30.97596 | -51.83461 | 30619 ft | 484 kts | 25° |
| 2026-05-03 21:44 | -30.94663 | -51.81531 | 29966 ft | 480 kts | 25° |
| 2026-05-03 21:44 | -30.91784 | -51.79635 | 29324 ft | 475 kts | 25° |
| 2026-05-03 21:44 | -30.88905 | -51.77741 | 28652 ft | 472 kts | 25° |
| 2026-05-03 21:45 | -30.86038 | -51.75856 | 27980 ft | 468 kts | 25° |
| 2026-05-03 21:45 | -30.83223 | -51.74007 | 27307 ft | 464 kts | 25° |
| 2026-05-03 21:45 | -30.80424 | -51.72171 | 26630 ft | 461 kts | 25° |
| 2026-05-03 21:45 | -30.77661 | -51.70362 | 25953 ft | 458 kts | 26° |
| 2026-05-03 21:46 | -30.74886 | -51.68545 | 25270 ft | 454 kts | 26° |
| 2026-05-03 21:46 | -30.72129 | -51.66742 | 24590 ft | 451 kts | 26° |
| 2026-05-03 21:46 | -30.69424 | -51.64974 | 23941 ft | 448 kts | 26° |
| 2026-05-03 21:46 | -30.66704 | -51.63198 | 23273 ft | 445 kts | 26° |
| 2026-05-03 21:47 | -30.64016 | -51.61444 | 22600 ft | 442 kts | 26° |
| 2026-05-03 21:47 | -30.61373 | -51.59720 | 21938 ft | 440 kts | 26° |
| 2026-05-03 21:47 | -30.58713 | -51.57986 | 21267 ft | 437 kts | 26° |
| 2026-05-03 21:47 | -30.56074 | -51.56266 | 20602 ft | 434 kts | 26° |
| 2026-05-03 21:48 | -30.53432 | -51.54545 | 19927 ft | 430 kts | 26° |
| 2026-05-03 21:48 | -30.50863 | -51.52873 | 19267 ft | 427 kts | 26° |
| 2026-05-03 21:48 | -30.48275 | -51.51188 | 18598 ft | 423 kts | 26° |
| 2026-05-03 21:48 | -30.45728 | -51.49531 | 17944 ft | 420 kts | 25° |
| 2026-05-03 21:49 | -30.43205 | -51.47890 | 17300 ft | 416 kts | 26° |
| 2026-05-03 21:49 | -30.40664 | -51.46240 | 16639 ft | 412 kts | 26° |
| 2026-05-03 21:49 | -30.38193 | -51.44635 | 15994 ft | 409 kts | 26° |
| 2026-05-03 21:49 | -30.35728 | -51.43036 | 15340 ft | 405 kts | 26° |
| 2026-05-03 21:50 | -30.33275 | -51.41446 | 14692 ft | 402 kts | 26° |
| 2026-05-03 21:50 | -30.30851 | -51.39875 | 14074 ft | 398 kts | 26° |
| 2026-05-03 21:50 | -30.28458 | -51.38324 | 13716 ft | 384 kts | 26° |
| 2026-05-03 21:50 | -30.26186 | -51.36848 | 13460 ft | 368 kts | 26° |
| 2026-05-03 21:51 | -30.23955 | -51.35403 | 13159 ft | 367 kts | 25° |
| 2026-05-03 21:51 | -30.21766 | -51.33990 | 12666 ft | 359 kts | 25° |
| 2026-05-03 21:51 | -30.19544 | -51.32834 | 12222 ft | 338 kts | 9° |
| 2026-05-03 21:51 | -30.17301 | -51.32767 | 11899 ft | 312 kts | 344° |
| 2026-05-03 21:52 | -30.15344 | -51.33614 | 11582 ft | 290 kts | 327° |
| 2026-05-03 21:52 | -30.13737 | -51.34888 | 11330 ft | 273 kts | 316° |
| 2026-05-03 21:52 | -30.12376 | -51.36379 | 10920 ft | 268 kts | 310° |
| 2026-05-03 21:52 | -30.11126 | -51.37968 | 10308 ft | 271 kts | 308° |
| 2026-05-03 21:53 | -30.09891 | -51.39623 | 9646 ft | 275 kts | 308° |
| 2026-05-03 21:53 | -30.08634 | -51.41317 | 8947 ft | 278 kts | 309° |
| 2026-05-03 21:53 | -30.07400 | -51.43021 | 8403 ft | 276 kts | 306° |
| 2026-05-03 21:53 | -30.06298 | -51.44793 | 8009 ft | 267 kts | 304° |
| 2026-05-03 21:54 | -30.05275 | -51.46519 | 7643 ft | 259 kts | 303° |
| 2026-05-03 21:54 | -30.04287 | -51.48216 | 7359 ft | 252 kts | 303° |
| 2026-05-03 21:54 | -30.03318 | -51.49900 | 6933 ft | 251 kts | 303° |
| 2026-05-03 21:54 | -30.02352 | -51.51562 | 6536 ft | 249 kts | 309° |
| 2026-05-03 21:55 | -30.00989 | -51.52677 | 6415 ft | 235 kts | 346° |
| 2026-05-03 21:55 | -29.99370 | -51.52551 | 6424 ft | 241 kts | 24° |
| 2026-05-03 21:55 | -29.98133 | -51.51257 | 6413 ft | 248 kts | 61° |
| 2026-05-03 21:55 | -29.97799 | -51.49317 | 6192 ft | 252 kts | 96° |
| 2026-05-03 21:56 | -29.98296 | -51.47373 | 5608 ft | 257 kts | 108° |
| 2026-05-03 21:56 | -29.98842 | -51.45403 | 4893 ft | 264 kts | 102° |
| 2026-05-03 21:56 | -29.99184 | -51.43319 | 4174 ft | 268 kts | 94° |
| 2026-05-03 21:56 | -29.99143 | -51.41184 | 3456 ft | 270 kts | 81° |
| 2026-05-03 21:57 | -29.98952 | -51.39030 | 2823 ft | 269 kts | 86° |
| 2026-05-03 21:57 | -29.98968 | -51.36921 | 2591 ft | 252 kts | 91° |
| 2026-05-03 21:57 | -29.99052 | -51.34987 | 2579 ft | 230 kts | 91° |
| 2026-05-03 21:57 | -29.99122 | -51.33257 | 2575 ft | 203 kts | 90° |
| 2026-05-03 21:58 | -29.99167 | -51.31764 | 2578 ft | 170 kts | 90° |
| 2026-05-03 21:58 | -29.99193 | -51.30461 | 2295 ft | 162 kts | 89° |
| 2026-05-03 21:58 | -29.99203 | -51.29165 | 1848 ft | 162 kts | 89° |
| 2026-05-03 21:58 | -29.99219 | -51.27898 | 1581 ft | 151 kts | 90° |
| 2026-05-03 21:59 | -29.99251 | -51.26731 | 1348 ft | 142 kts | 91° |
| 2026-05-03 21:59 | -29.99293 | -51.25629 | 1100 ft | 136 kts | 91° |
| 2026-05-03 21:59 | -29.99325 | -51.24586 | 916 ft | 123 kts | 91° |
| 2026-05-03 21:59 | -29.99340 | -51.23637 | 681 ft | 115 kts | 88° |
| 2026-05-03 22:00 | -29.99308 | -51.22696 | 536 ft | 117 kts | 88° |
| 2026-05-03 22:00 | -29.99353 | -51.21747 | 564 ft | 121 kts | 94° |
| 2026-05-03 22:00 | -29.99390 | -51.20734 | 449 ft | 126 kts | 90° |
| 2026-05-03 22:00 | -29.99408 | -51.19754 | 253 ft | 120 kts | 92° |
| 2026-05-03 22:01 | -29.99426 | -51.18814 | 99 ft | 113 kts | 91° |
| 2026-05-03 22:01 | -29.99439 | -51.17958 | 18 ft | 94 kts | 92° |
| 2026-05-03 22:01 | -29.99452 | -51.17453 | 18 ft | 38 kts | 91° |
| 2026-05-03 22:01 | -29.99458 | -51.17176 | 18 ft | 35 kts | 92° |
| 2026-05-03 22:02 | -29.99463 | -51.16908 | 21 ft | 28 kts | 91° |
| 2026-05-03 22:02 | -29.99460 | -51.16770 | 20 ft | 11 kts | 63° |
| 2026-05-03 22:02 | -29.99386 | -51.16741 | 19 ft | 12 kts | 3° |
| 2026-05-03 22:02 | -29.99306 | -51.16747 | 18 ft | 11 kts | 333° |
| 2026-05-03 22:03 | -29.99278 | -51.16825 | 18 ft | 11 kts | 272° |
| 2026-05-03 22:03 | -29.99276 | -51.16913 | 18 ft | 11 kts | 270° |
| 2026-05-03 22:03 | -29.99275 | -51.16998 | 18 ft | 11 kts | 272° |
| 2026-05-03 22:03 | -29.99272 | -51.17118 | 18 ft | 18 kts | 272° |
| 2026-05-03 22:04 | -29.99269 | -51.17282 | 18 ft | 18 kts | 271° |
| 2026-05-03 22:04 | -29.99240 | -51.17385 | 19 ft | 15 kts | 335° |
| 2026-05-03 22:04 | -29.99138 | -51.17403 | 19 ft | 11 kts | 0° |
| 2026-05-03 22:04 | -29.99110 | -51.17403 | 19 ft | 0 kts | 0° |